Aviation Digital Data Service (ADDS)

Output produced by METARs form (2020 UTC 24 June 2016)
found at http://aviationweather.gov/adds/metars/
 
KLCH 241725Z 2418/2518 17008KT P6SM VCSH SCT035 
     TEMPO 2418/2420 5SM -SHRA BKN035 
     FM250200 VRB03KT P6SM SKC